Bennington, Vermont
Current Conditions -  °F | °C
As of 4:54 AM on Saturday 25 Oct 2014 (Local Time) from KDDH Reporting Station
Overcast Overcast  
Wind Chill: 40°   Ceiling: 1100
Heat Index: 40°   Visibility: 9mi
Dew Point: 39°   Wind: 3mph
Humidity: 97%   Direction: 160°SSE
Pressure: 29.82"   Gusts: NA
Location:  42.88°N, 73.2°W
Report Text: KDDH 250854Z AUTO 16003KT 9SM OVC011 04/04 A2982 RMK AO2 SLP102 T00440039 57002
Loading
Personal Weather Stations






























Interactive Weather Map New forecast layout! Learn more

10-Day Weather Forecast

Advertisements
Track Severe Weather on mobile